Time;durP1;ratioP1;P1;durP2;ratioP2;P2;SDS_P1;SDS_P2;PMS_P1;PMS_P2;Temp;Humidity;BMP_temperature;BMP_pressure;BME280_temperature;BME280_humidity;BME280_pressure;Samples;Min_cycle;Max_cycle;Signal;HPM_P1;HPM_P2
2022/12/09 00:02:03;;;;;;;23.60;14.30;;;;;;;-2.19;98.60;100014.55;105624;1291;59364;-75
2022/12/09 00:04:30;;;;;;;22.00;14.00;;;;;;;-2.19;98.49;100015.98;105633;1283;73743;-75
2022/12/09 00:06:56;;;;;;;21.70;13.40;;;;;;;-2.20;98.63;100016.69;105467;1291;70952;-74
2022/12/09 00:09:23;;;;;;;24.60;15.10;;;;;;;-2.21;98.47;100014.01;105519;1291;58317;-74
2022/12/09 00:11:51;;;;;;;23.90;14.60;;;;;;;-2.24;98.15;100015.45;105076;1295;62121;-74
2022/12/09 00:14:18;;;;;;;24.00;14.90;;;;;;;-2.27;98.12;100019.99;105183;1290;60452;-74
2022/12/09 00:16:44;;;;;;;23.90;15.10;;;;;;;-2.30;98.24;100024.29;104621;1293;60574;-74
2022/12/09 00:19:11;;;;;;;23.00;14.70;;;;;;;-2.32;97.87;100031.40;104942;1291;69897;-74
2022/12/09 00:21:38;;;;;;;22.80;14.20;;;;;;;-2.37;97.97;100032.09;104766;1282;59373;-75
2022/12/09 00:24:06;;;;;;;25.50;15.00;;;;;;;-2.41;97.78;100034.15;104410;1300;60595;-75
2022/12/09 00:26:33;;;;;;;26.20;15.60;;;;;;;-2.47;97.55;100033.66;104518;1284;58953;-74
2022/12/09 00:29:00;;;;;;;32.70;17.10;;;;;;;-2.51;97.58;100032.23;105605;1286;74422;-75
2022/12/09 00:31:32;;;;;;;33.90;20.30;;;;;;;-2.55;97.48;100037.88;104575;1294;69661;-74
2022/12/09 00:34:02;;;;;;;29.80;18.70;;;;;;;-2.59;97.91;100036.55;104433;1297;70440;-74
2022/12/09 00:36:29;;;;;;;27.90;17.60;;;;;;;-2.62;97.78;100036.95;104790;1294;60475;-75
2022/12/09 00:38:57;;;;;;;24.70;16.00;;;;;;;-2.65;97.94;100035.65;104772;1291;60192;-75
2022/12/09 00:41:24;;;;;;;26.00;16.50;;;;;;;-2.67;97.96;100039.73;104139;1293;72104;-74
2022/12/09 00:43:51;;;;;;;26.30;16.40;;;;;;;-2.67;98.34;100043.66;104081;1292;71286;-76
2022/12/09 00:46:18;;;;;;;24.00;15.30;;;;;;;-2.66;98.29;100042.79;103730;1300;70607;-74
2022/12/09 00:48:45;;;;;;;26.50;15.70;;;;;;;-2.67;98.27;100043.85;103857;1299;62048;-74
2022/12/09 00:51:18;;;;;;;25.40;15.70;;;;;;;-2.66;98.58;100045.39;104276;1284;60609;-74
2022/12/09 00:53:46;;;;;;;24.30;14.20;;;;;;;-2.64;99.01;100042.46;104159;1294;74002;-74
2022/12/09 00:56:12;;;;;;;23.90;14.80;;;;;;;-2.63;98.92;100043.94;104271;1286;70605;-76
2022/12/09 00:58:39;;;;;;;23.20;14.30;;;;;;;-2.64;98.80;100041.07;104245;1291;72731;-74
2022/12/09 01:01:05;;;;;;;23.80;14.90;;;;;;;-2.64;98.52;100040.21;104417;1294;59150;-75
2022/12/09 01:03:32;;;;;;;24.20;14.80;;;;;;;-2.65;98.71;100039.08;104679;1291;60610;-75
2022/12/09 01:05:59;;;;;;;25.00;15.30;;;;;;;-2.64;98.72;100038.50;103786;1296;72936;-75
2022/12/09 01:08:26;;;;;;;25.90;15.10;;;;;;;-2.62;98.82;100040.98;103764;1301;69794;-75
2022/12/09 01:10:53;;;;;;;24.00;15.00;;;;;;;-2.63;98.79;100042.91;103850;1293;72424;-75
2022/12/09 01:13:19;;;;;;;23.60;14.60;;;;;;;-2.64;98.81;100043.66;104048;1293;60518;-75
2022/12/09 01:15:46;;;;;;;24.10;15.20;;;;;;;-2.65;98.53;100048.44;104366;1294;60494;-75
2022/12/09 01:18:13;;;;;;;23.70;14.60;;;;;;;-2.67;98.48;100049.39;104117;1291;71401;-75
2022/12/09 01:20:40;;;;;;;22.40;13.70;;;;;;;-2.70;98.40;100052.91;104482;1284;72047;-74
2022/12/09 01:23:06;;;;;;;24.40;14.10;;;;;;;-2.72;98.31;100051.35;104171;1293;71085;-75
2022/12/09 01:25:33;;;;;;;23.40;14.80;;;;;;;-2.74;98.37;100048.17;103792;1285;61746;-75
2022/12/09 01:27:59;;;;;;;22.80;13.90;;;;;;;-2.74;98.61;100048.88;103857;1294;60366;-76
2022/12/09 01:30:26;;;;;;;22.00;13.70;;;;;;;-2.75;98.36;100047.77;104091;1293;73356;-75
2022/12/09 01:32:53;;;;;;;23.80;13.90;;;;;;;-2.78;98.43;100048.64;104135;1301;70709;-73
2022/12/09 01:35:19;;;;;;;23.10;14.10;;;;;;;-2.81;98.22;100053.89;103693;1294;71347;-74
2022/12/09 01:37:46;;;;;;;22.70;14.10;;;;;;;-2.83;98.32;100056.44;104329;1290;60880;-74
2022/12/09 01:40:15;;;;;;;25.80;15.20;;;;;;;-2.84;98.53;100061.84;103730;1292;60988;-74
2022/12/09 01:42:43;;;;;;;23.40;14.40;;;;;;;-2.85;98.53;100056.22;103834;1294;75040;-74
2022/12/09 01:45:18;;;;;;;23.90;14.60;;;;;;;-2.87;98.57;100057.38;103706;1294;69842;-74
2022/12/09 01:47:56;;;;;;;26.90;15.50;;;;;;;-2.87;98.86;100054.42;104420;1290;72931;-75
2022/12/09 01:50:24;;;;;;;27.80;14.60;;;;;;;-2.90;98.49;100054.46;103957;1291;62334;-74
2022/12/09 01:52:51;;;;;;;23.30;14.00;;;;;;;-2.93;98.20;100052.95;104256;1294;59501;-75
2022/12/09 01:55:18;;;;;;;20.80;13.40;;;;;;;-2.94;98.41;100052.65;104378;1292;73891;-74
2022/12/09 01:57:45;;;;;;;22.60;13.90;;;;;;;-2.96;98.19;100051.23;104331;1294;71755;-76
2022/12/09 02:00:13;;;;;;;24.40;13.70;;;;;;;-2.97;98.47;100046.62;104462;1294;71388;-75
2022/12/09 02:02:43;;;;;;;24.40;13.80;;;;;;;-2.96;98.55;100047.61;105405;1299;60263;-75
2022/12/09 02:05:11;;;;;;;21.90;13.00;;;;;;;-2.96;98.61;100045.70;104486;1294;60556;-75
2022/12/09 02:07:37;;;;;;;24.50;13.70;;;;;;;-2.96;98.57;100044.16;104150;1300;74246;-74
2022/12/09 02:10:09;;;;;;;25.20;14.30;;;;;;;-2.97;98.55;100039.38;104546;1292;58553;-75
2022/12/09 02:12:52;;;;;;;25.70;14.50;;;;;;;-2.96;98.55;100036.71;104288;1292;70417;-75
2022/12/09 02:15:22;;;;;;;24.40;15.30;;;;;;;-2.96;98.70;100033.04;104377;1293;61897;-74
2022/12/09 02:18:00;;;;;;;25.70;15.00;;;;;;;-2.95;98.59;100031.83;103831;1299;213171;-74
2022/12/09 02:20:38;;;;;;;25.80;15.40;;;;;;;-2.96;98.66;100032.38;104195;1294;72265;-75
2022/12/09 02:23:14;;;;;;;27.80;16.10;;;;;;;-2.97;98.46;100027.91;104292;1300;69537;-75
2022/12/09 02:25:54;;;;;;;27.40;15.20;;;;;;;-2.97;98.53;100025.34;103820;1302;71409;-74
2022/12/09 02:28:40;;;;;;;25.10;14.90;;;;;;;-2.98;98.45;100023.48;104587;1301;62053;-74
2022/12/09 02:31:33;;;;;;;26.10;15.00;;;;;;;-2.99;98.34;100019.23;104652;1292;60327;-74
2022/12/09 02:34:16;;;;;;;28.20;15.50;;;;;;;-3.00;98.26;100020.70;104612;1294;73077;-74
2022/12/09 02:36:53;;;;;;;24.70;15.10;;;;;;;-3.03;98.33;100018.46;104245;1283;70018;-76
2022/12/09 02:39:37;;;;;;;27.20;15.80;;;;;;;-3.05;98.06;100025.36;104901;1291;71379;-76
2022/12/09 02:42:06;;;;;;;29.20;15.60;;;;;;;-3.06;98.18;100026.48;104076;1296;60480;-75
2022/12/09 02:44:36;;;;;;;29.50;16.00;;;;;;;-3.09;98.07;100027.22;103812;1294;60263;-75
2022/12/09 02:47:05;;;;;;;26.80;15.70;;;;;;;-3.10;98.19;100030.91;103956;1301;72824;-75
2022/12/09 02:49:33;;;;;;;26.80;15.40;;;;;;;-3.12;98.02;100028.09;104590;1295;71240;-76
2022/12/09 02:52:03;;;;;;;26.20;14.90;;;;;;;-3.13;98.30;100031.27;104254;1295;73819;-75
2022/12/09 02:54:33;;;;;;;26.80;14.60;;;;;;;-3.14;98.18;100029.45;103952;1301;60772;-75
2022/12/09 02:57:12;;;;;;;25.70;14.80;;;;;;;-3.16;98.20;100031.15;104441;1291;60686;-75
2022/12/09 02:59:38;;;;;;;24.70;14.80;;;;;;;-3.19;98.09;100028.91;104442;1292;74416;-75
2022/12/09 03:02:25;;;;;;;25.70;15.40;;;;;;;-3.23;97.94;100024.52;105037;1285;70497;-75
2022/12/09 03:05:04;;;;;;;24.70;15.00;;;;;;;-3.24;97.81;100023.05;104038;1300;73628;-73
2022/12/09 03:07:54;;;;;;;24.80;14.80;;;;;;;-3.27;97.85;100018.34;104588;1289;60795;-73
2022/12/09 03:10:31;;;;;;;25.10;15.00;;;;;;;-3.29;97.87;100013.31;104567;1298;60413;-74
2022/12/09 03:13:05;;;;;;;24.40;14.20;;;;;;;-3.32;97.82;100012.80;103917;1299;73454;-74
2022/12/09 03:15:36;;;;;;;24.90;13.90;;;;;;;-3.32;98.09;100012.65;104348;1298;70591;-74
2022/12/09 03:18:07;;;;;;;25.80;14.20;;;;;;;-3.34;97.86;100010.00;103946;1301;72102;-74
2022/12/09 03:20:38;;;;;;;24.90;14.10;;;;;;;-3.35;98.09;100008.05;104058;1292;60692;-74
2022/12/09 03:23:08;;;;;;;25.00;14.20;;;;;;;-3.38;97.77;100010.11;103566;1291;60398;-74
2022/12/09 03:25:41;;;;;;;24.60;13.90;;;;;;;-3.40;97.71;100006.47;104915;1290;72950;-74
2022/12/09 03:28:23;;;;;;;22.40;13.70;;;;;;;-3.43;97.78;100003.05;105339;1292;71268;-74
2022/12/09 03:30:53;;;;;;;23.00;13.90;;;;;;;-3.46;97.47;99998.93;103761;1296;71882;-74
2022/12/09 03:33:22;;;;;;;24.00;13.90;;;;;;;-3.48;97.66;99999.02;103909;1290;63106;-74
2022/12/09 03:35:56;;;;;;;23.80;14.00;;;;;;;-3.49;97.64;100000.99;104339;1296;60572;-74
2022/12/09 03:38:29;;;;;;;23.50;13.90;;;;;;;-3.50;97.82;99997.95;104992;1284;73937;-74
2022/12/09 03:41:02;;;;;;;24.40;14.10;;;;;;;-3.51;97.73;99999.40;104115;1299;72570;-74
2022/12/09 03:43:33;;;;;;;24.60;14.60;;;;;;;-3.53;97.65;99997.44;103788;1297;72693;-74
2022/12/09 03:46:00;;;;;;;25.90;14.90;;;;;;;-3.54;97.98;99999.59;104316;1302;60547;-74
2022/12/09 03:48:27;;;;;;;23.30;13.70;;;;;;;-3.56;97.56;99999.73;104499;1297;60500;-74
2022/12/09 03:51:09;;;;;;;23.00;13.90;;;;;;;-3.58;97.53;99996.60;103439;1299;73036;-74
2022/12/09 03:53:50;;;;;;;22.70;13.80;;;;;;;-3.61;97.36;99993.00;104382;1299;71513;-73
2022/12/09 03:56:21;;;;;;;25.30;14.40;;;;;;;-3.66;97.24;99989.38;104079;1297;70447;-76
2022/12/09 03:58:52;;;;;;;23.90;14.30;;;;;;;-3.70;97.01;99990.98;104363;1301;60502;-75
2022/12/09 04:01:22;;;;;;;23.30;14.20;;;;;;;-3.76;97.21;99992.55;104662;1294;59462;-75
2022/12/09 04:03:52;;;;;;;27.20;14.70;;;;;;;-3.79;97.20;99991.72;104578;1295;72615;-75
2022/12/09 04:06:19;;;;;;;25.90;14.90;;;;;;;-3.78;97.49;99990.49;105114;1284;71108;-75
2022/12/09 04:08:46;;;;;;;23.50;14.20;;;;;;;-3.77;97.58;99991.75;104099;1299;73320;-75
2022/12/09 04:11:12;;;;;;;24.90;14.50;;;;;;;-3.75;97.76;99990.79;104405;1292;60757;-76
2022/12/09 04:13:39;;;;;;;23.40;14.50;;;;;;;-3.74;97.54;99987.98;104700;1289;60522;-75
2022/12/09 04:16:06;;;;;;;26.10;14.00;;;;;;;-3.75;97.48;99986.33;103786;1295;72736;-75
2022/12/09 04:18:33;;;;;;;23.10;14.20;;;;;;;-3.76;97.66;99984.64;104238;1295;70839;-75
2022/12/09 04:21:04;;;;;;;24.20;14.40;;;;;;;-3.76;97.36;99981.88;103759;1296;71544;-74
2022/12/09 04:23:31;;;;;;;23.30;14.00;;;;;;;-3.77;97.49;99979.36;104254;1293;61221;-75
2022/12/09 04:26:03;;;;;;;22.50;13.90;;;;;;;-3.78;97.60;99983.73;103685;1298;61367;-74
2022/12/09 04:28:30;;;;;;;24.00;13.70;;;;;;;-3.78;97.40;99982.37;104078;1293;74073;-74
2022/12/09 04:30:57;;;;;;;22.50;14.30;;;;;;;-3.79;97.45;99977.94;103723;1291;70375;-76
2022/12/09 04:33:25;;;;;;;26.00;14.30;;;;;;;-3.80;97.51;99979.23;104542;1291;72719;-76
2022/12/09 04:35:52;;;;;;;25.60;15.60;;;;;;;-3.84;97.37;99977.89;103797;1293;60463;-76
2022/12/09 04:38:19;;;;;;;23.50;14.70;;;;;;;-3.85;97.35;99974.50;103838;1302;60549;-75
2022/12/09 04:40:45;;;;;;;25.50;14.60;;;;;;;-3.85;97.52;99975.01;104142;1296;72621;-74
2022/12/09 04:43:12;;;;;;;25.80;14.60;;;;;;;-3.86;97.43;99976.30;103882;1291;60560;-74
2022/12/09 04:45:38;;;;;;;27.90;14.80;;;;;;;-3.86;97.41;99974.95;104467;1284;71752;-74
2022/12/09 04:48:05;;;;;;;25.30;14.30;;;;;;;-3.88;97.18;99975.89;103790;1297;60423;-74
2022/12/09 04:50:32;;;;;;;23.90;14.40;;;;;;;-3.92;97.22;99976.69;103868;1301;60483;-74
2022/12/09 04:52:59;;;;;;;27.50;14.90;;;;;;;-3.94;97.22;99977.02;104554;1292;73800;-74
2022/12/09 04:55:25;;;;;;;24.10;14.90;;;;;;;-3.95;97.40;99979.14;103925;1294;71110;-73
2022/12/09 04:57:52;;;;;;;25.40;14.30;;;;;;;-3.94;97.54;99985.61;104086;1290;72153;-74
2022/12/09 05:00:20;;;;;;;27.00;14.60;;;;;;;-3.94;97.44;99984.92;104563;1296;60442;-73
2022/12/09 05:02:46;;;;;;;26.10;14.70;;;;;;;-3.94;97.53;99980.64;105281;1292;60519;-74
2022/12/09 05:05:13;;;;;;;28.60;15.10;;;;;;;-3.94;97.45;99976.70;105248;1299;73556;-74
2022/12/09 05:07:40;;;;;;;25.40;15.00;;;;;;;-3.94;97.34;99978.41;105563;1294;70002;-74
2022/12/09 05:10:07;;;;;;;24.90;14.00;;;;;;;-3.96;97.39;99973.98;104963;1290;72216;-74
2022/12/09 05:12:35;;;;;;;28.60;15.10;;;;;;;-3.96;97.36;99981.80;105303;1296;61769;-73
2022/12/09 05:15:02;;;;;;;26.90;15.90;;;;;;;-3.96;97.13;99983.38;105137;1298;58995;-75
2022/12/09 05:17:29;;;;;;;27.00;15.70;;;;;;;-3.99;97.00;99980.59;104497;1294;74031;-75
2022/12/09 05:19:56;;;;;;;25.90;15.50;;;;;;;-3.99;97.09;99981.11;103909;1292;70887;-75
2022/12/09 05:22:23;;;;;;;27.10;15.30;;;;;;;-3.98;97.21;99980.21;104463;1302;71553;-75
2022/12/09 05:24:49;;;;;;;28.50;14.90;;;;;;;-3.98;97.31;99981.21;104042;1299;59102;-74
2022/12/09 05:27:16;;;;;;;24.80;14.70;;;;;;;-3.98;97.18;99986.77;104169;1296;60601;-75
2022/12/09 05:29:43;;;;;;;26.60;15.60;;;;;;;-3.98;97.11;99985.05;104018;1296;59430;-75
2022/12/09 05:32:10;;;;;;;26.80;15.00;;;;;;;-3.99;97.14;99985.80;104071;1302;69761;-75
2022/12/09 05:34:38;;;;;;;24.80;14.70;;;;;;;-4.01;97.13;99986.76;103823;1299;71423;-74
2022/12/09 05:37:05;;;;;;;24.60;14.30;;;;;;;-4.00;97.22;99985.19;103987;1285;62446;-75
2022/12/09 05:39:31;;;;;;;26.50;15.30;;;;;;;-4.01;97.20;99984.16;104121;1290;59714;-76
2022/12/09 05:41:58;;;;;;;26.70;15.40;;;;;;;-4.01;97.23;99987.13;104542;1282;74139;-76
2022/12/09 05:44:25;;;;;;;27.10;15.30;;;;;;;-4.02;97.19;99982.73;104001;1291;69514;-74
2022/12/09 05:46:52;;;;;;;25.70;15.30;;;;;;;-4.03;97.10;99986.56;103940;1285;72945;-77
2022/12/09 05:49:24;;;;;;;25.80;14.60;;;;;;;-4.05;97.02;99989.81;104177;1291;60665;-76
2022/12/09 05:51:54;;;;;;;30.80;19.30;;;;;;;-4.08;97.01;99990.00;104106;1299;60324;-73
2022/12/09 05:54:21;;;;;;;29.90;17.30;;;;;;;-4.09;97.33;99987.97;103891;1292;72275;-74
2022/12/09 05:56:48;;;;;;;32.00;17.80;;;;;;;-4.08;97.33;99982.90;103816;1297;71564;-74
2022/12/09 05:59:15;;;;;;;27.80;16.50;;;;;;;-4.06;97.39;99983.52;104197;1296;71523;-74
2022/12/09 06:01:42;;;;;;;29.10;17.10;;;;;;;-4.07;97.21;99975.95;104548;1294;60941;-74
2022/12/09 06:04:08;;;;;;;28.70;16.70;;;;;;;-4.07;97.22;99972.15;104424;1299;59283;-74
2022/12/09 06:06:35;;;;;;;29.10;16.60;;;;;;;-4.09;97.07;99974.15;104633;1290;74935;-75
2022/12/09 06:09:02;;;;;;;31.50;18.70;;;;;;;-4.10;97.02;99971.13;105039;1291;69221;-74
2022/12/09 06:11:30;;;;;;;31.90;18.50;;;;;;;-4.13;96.86;99970.26;104443;1291;71538;-76
2022/12/09 06:13:57;;;;;;;29.70;18.30;;;;;;;-4.15;96.88;99974.00;104176;1297;60318;-75
2022/12/09 06:16:25;;;;;;;30.10;17.30;;;;;;;-4.15;96.97;99975.94;104245;1292;59314;-75
2022/12/09 06:18:52;;;;;;;26.70;15.60;;;;;;;-4.16;96.64;99976.02;104593;1292;73983;-75
2022/12/09 06:21:19;;;;;;;22.70;14.40;;;;;;;-4.14;97.11;99980.16;103871;1294;71121;-75
2022/12/09 06:23:47;;;;;;;24.20;14.50;;;;;;;-4.10;97.13;99973.20;104249;1295;71148;-75
2022/12/09 06:26:23;;;;;;;23.20;13.40;;;;;;;-4.06;97.27;99972.12;103971;1287;60290;-75
2022/12/09 06:28:51;;;;;;;26.20;12.80;;;;;;;-4.04;97.10;99971.26;104655;1290;59601;-75
2022/12/09 06:31:19;;;;;;;27.70;14.00;;;;;;;-4.03;96.93;99975.85;103521;1302;73151;-75
2022/12/09 06:33:46;;;;;;;31.00;13.50;;;;;;;-4.03;96.62;99975.70;104579;1292;72454;-75
2022/12/09 06:36:25;;;;;;;31.80;14.10;;;;;;;-4.02;96.73;99981.17;104592;1296;72986;-74
2022/12/09 06:38:52;;;;;;;27.50;15.30;;;;;;;-4.00;96.87;99981.52;103368;1301;61689;-74
2022/12/09 06:41:19;;;;;;;21.50;12.80;;;;;;;-3.96;97.09;99978.89;104200;1291;60495;-74
2022/12/09 06:43:46;;;;;;;24.10;13.20;;;;;;;-3.94;97.04;99981.64;103090;1297;71709;-75
2022/12/09 06:46:16;;;;;;;22.50;12.60;;;;;;;-3.91;97.00;99976.30;103949;1291;70282;-75
2022/12/09 06:48:43;;;;;;;22.70;12.50;;;;;;;-3.91;96.82;99974.02;104006;1286;72688;-77
2022/12/09 06:51:10;;;;;;;22.30;13.70;;;;;;;-3.92;96.64;99972.89;103670;1298;59971;-76
2022/12/09 06:53:37;;;;;;;22.20;13.00;;;;;;;-3.89;96.88;99971.67;104018;1299;58154;-76
2022/12/09 06:56:06;;;;;;;24.30;13.80;;;;;;;-3.82;97.30;99970.87;103368;1303;72626;-76
2022/12/09 06:58:39;;;;;;;25.70;14.60;;;;;;;-3.74;97.59;99972.20;103879;1300;72003;-75
2022/12/09 07:01:16;;;;;;;26.30;14.20;;;;;;;-3.66;97.52;99970.66;103481;1299;72681;-75
2022/12/09 07:03:47;;;;;;;23.30;14.10;;;;;;;-3.58;97.28;99971.02;104521;1291;61375;-75
2022/12/09 07:06:26;;;;;;;25.40;14.30;;;;;;;-3.50;97.23;99974.13;104718;1294;60368;-73
2022/12/09 07:08:54;;;;;;;25.30;15.60;;;;;;;-3.41;97.43;99978.34;105507;1291;73889;-74
2022/12/09 07:11:21;;;;;;;27.00;15.10;;;;;;;-3.31;97.42;99978.51;104821;1292;71221;-75
2022/12/09 07:13:49;;;;;;;22.90;13.60;;;;;;;-3.21;97.62;99979.58;104689;1292;72510;-75
2022/12/09 07:16:17;;;;;;;23.40;13.60;;;;;;;-3.09;97.57;99979.96;104849;1291;60834;-75
2022/12/09 07:18:44;;;;;;;34.80;17.30;;;;;;;-2.98;97.64;99974.91;104952;1297;60440;-75
2022/12/09 07:21:17;;;;;;;37.60;18.50;;;;;;;-2.90;97.39;99975.21;104432;1295;72032;-76
2022/12/09 07:23:45;;;;;;;39.10;21.40;;;;;;;-2.82;97.07;99975.90;103075;1294;71166;-75
2022/12/09 07:26:12;;;;;;;50.10;26.10;;;;;;;-2.76;96.92;99979.77;103267;1299;72171;-74
2022/12/09 07:28:41;;;;;;;45.70;23.20;;;;;;;-2.71;96.88;99979.05;103661;1299;61041;-74
2022/12/09 07:31:23;;;;;;;38.70;21.40;;;;;;;-2.66;96.68;99972.67;103865;1298;60376;-74
2022/12/09 07:33:52;;;;;;;34.20;20.40;;;;;;;-2.60;96.93;99974.15;103586;1293;72908;-76
2022/12/09 07:36:20;;;;;;;34.00;18.60;;;;;;;-2.52;97.27;99972.39;103283;1290;70930;-74
2022/12/09 07:38:53;;;;;;;32.50;17.40;;;;;;;-2.39;98.15;99973.19;103281;1300;72196;-75
2022/12/09 07:41:20;;;;;;;29.30;16.60;;;;;;;-2.30;97.86;99974.08;103938;1291;62749;-75
2022/12/09 07:43:47;;;;;;;29.50;15.80;;;;;;;-2.23;97.81;99979.85;103378;1289;60361;-73
2022/12/09 07:46:16;;;;;;;27.90;16.20;;;;;;;-2.15;98.09;99981.51;103367;1297;72443;-73
2022/12/09 07:48:44;;;;;;;29.60;17.00;;;;;;;-2.12;97.57;99980.73;103837;1298;69865;-74
2022/12/09 07:51:11;;;;;;;28.00;16.50;;;;;;;-2.05;97.48;99985.50;103334;1301;72686;-74
2022/12/09 07:53:38;;;;;;;27.40;17.00;;;;;;;-1.99;97.40;99985.72;103068;1294;60900;-74
2022/12/09 07:56:10;;;;;;;30.70;17.20;;;;;;;-1.92;97.24;99987.85;103476;1299;60498;-74
2022/12/09 07:58:37;;;;;;;27.20;15.80;;;;;;;-1.83;97.40;99991.84;103592;1299;73481;-74
2022/12/09 08:01:10;;;;;;;26.90;15.80;;;;;;;-1.75;97.46;99991.75;103754;1299;71132;-74
2022/12/09 08:03:38;;;;;;;27.40;15.90;;;;;;;-1.67;97.33;99994.13;103037;1298;71806;-74
2022/12/09 08:06:05;;;;;;;29.40;17.10;;;;;;;-1.59;97.37;99993.20;104345;1291;60733;-74
2022/12/09 08:08:33;;;;;;;28.70;17.30;;;;;;;-1.51;97.14;99993.45;103458;1294;60388;-74
2022/12/09 08:11:12;;;;;;;30.00;17.20;;;;;;;-1.42;97.06;99994.87;103046;1299;73885;-73
2022/12/09 08:13:42;;;;;;;28.30;17.10;;;;;;;-1.33;97.17;99996.99;103128;1299;71341;-74
2022/12/09 08:16:11;;;;;;;28.50;16.20;;;;;;;-1.26;96.90;99994.88;104272;1298;72657;-75
2022/12/09 08:18:39;;;;;;;29.20;17.70;;;;;;;-1.18;96.96;99996.16;103290;1296;61792;-74
2022/12/09 08:21:10;;;;;;;29.50;17.90;;;;;;;-1.08;97.03;99994.44;103078;1290;60595;-75
2022/12/09 08:23:37;;;;;;;29.90;17.60;;;;;;;-1.01;97.06;99994.89;103948;1294;75586;-75
2022/12/09 08:26:04;;;;;;;32.00;17.80;;;;;;;-0.91;97.00;100000.20;103849;1299;69137;-75
2022/12/09 08:28:31;;;;;;;30.80;17.70;;;;;;;-0.85;96.74;100000.20;103127;1297;72472;-76
2022/12/09 08:31:05;;;;;;;32.80;18.50;;;;;;;-0.81;96.46;100002.00;103014;1299;60566;-75
2022/12/09 08:33:33;;;;;;;31.40;18.60;;;;;;;-0.75;96.42;100001.41;103899;1297;60449;-75
2022/12/09 08:36:01;;;;;;;31.60;18.20;;;;;;;-0.68;96.48;100001.40;103206;1299;72470;-75
2022/12/09 08:38:28;;;;;;;36.80;18.80;;;;;;;-0.60;96.63;100004.06;103499;1299;71101;-75
2022/12/09 08:40:55;;;;;;;35.70;19.20;;;;;;;-0.49;97.04;100003.52;103254;1296;71311;-75
2022/12/09 08:43:21;;;;;;;29.40;18.20;;;;;;;-0.40;96.84;99997.98;104172;1293;60595;-75
2022/12/09 08:45:48;;;;;;;29.10;18.50;;;;;;;-0.33;96.31;100000.93;103298;1295;60480;-75
2022/12/09 08:48:15;;;;;;;28.70;18.60;;;;;;;-0.28;96.29;99999.96;103566;1299;72414;-76
2022/12/09 08:50:42;;;;;;;34.10;19.90;;;;;;;-0.20;96.47;100000.89;103200;1300;69454;-76
2022/12/09 08:53:08;;;;;;;33.00;19.60;;;;;;;-0.10;97.08;100002.33;103487;1290;72859;-75
2022/12/09 08:55:38;;;;;;;31.60;19.60;;;;;;;-0.01;96.78;100006.17;103517;1294;62267;-76
2022/12/09 08:58:04;;;;;;;30.80;18.40;;;;;;;0.07;96.78;100002.07;103731;1299;61082;-74
2022/12/09 09:00:31;;;;;;;31.70;19.10;;;;;;;0.12;96.47;100006.34;103376;1291;74081;-76
2022/12/09 09:02:58;;;;;;;29.90;19.30;;;;;;;0.16;96.24;99997.31;103951;1296;69534;-76
2022/12/09 09:05:25;;;;;;;31.10;19.10;;;;;;;0.20;96.06;99995.55;103089;1299;72807;-75
2022/12/09 09:07:52;;;;;;;30.70;18.60;;;;;;;0.25;95.83;99996.23;103105;1298;60392;-76
2022/12/09 09:10:19;;;;;;;31.50;18.70;;;;;;;0.30;95.76;99995.95;103227;1291;60547;-76
2022/12/09 09:12:46;;;;;;;32.80;19.60;;;;;;;0.35;95.73;99997.34;104147;1297;73653;-73
2022/12/09 09:15:14;;;;;;;29.90;18.60;;;;;;;0.38;95.45;100002.40;103193;1299;71910;-75
2022/12/09 09:17:41;;;;;;;31.60;19.20;;;;;;;0.43;95.48;100004.16;103646;1293;71199;-76
2022/12/09 09:20:16;;;;;;;29.30;18.20;;;;;;;0.49;95.50;100005.76;103411;1299;60593;-76
2022/12/09 09:22:43;;;;;;;28.50;17.90;;;;;;;0.54;95.55;100007.96;103642;1300;60472;-74
2022/12/09 09:25:10;;;;;;;28.40;17.30;;;;;;;0.59;95.80;100011.14;103057;1301;61633;-73
2022/12/09 09:27:37;;;;;;;30.40;18.10;;;;;;;0.64;95.51;100013.58;103620;1292;71270;-73
2022/12/09 09:30:07;;;;;;;30.90;18.10;;;;;;;0.69;95.47;100012.73;103168;1299;73134;-73
2022/12/09 09:32:35;;;;;;;29.50;17.40;;;;;;;0.75;95.36;100009.49;103700;1299;60385;-75
2022/12/09 09:35:02;;;;;;;29.00;16.80;;;;;;;0.85;95.69;100012.66;103120;1301;60567;-75
2022/12/09 09:37:30;;;;;;;29.30;17.20;;;;;;;0.95;95.85;100011.51;104297;1292;72319;-74
2022/12/09 09:39:56;;;;;;;31.30;17.80;;;;;;;1.05;95.64;100013.26;102907;1291;70304;-75
2022/12/09 09:42:32;;;;;;;27.00;16.50;;;;;;;1.11;95.52;100013.36;102956;1294;72617;-75
2022/12/09 09:45:05;;;;;;;27.40;15.80;;;;;;;1.16;95.25;100011.22;102992;1301;60463;-75
2022/12/09 09:47:38;;;;;;;28.30;16.40;;;;;;;1.22;94.85;100012.79;103314;1298;60451;-75
2022/12/09 09:50:06;;;;;;;25.80;16.30;;;;;;;1.28;94.60;100011.43;104122;1292;73701;-74
2022/12/09 09:52:37;;;;;;;32.20;16.70;;;;;;;1.33;94.38;100012.27;103538;1293;69880;-75
2022/12/09 09:55:13;;;;;;;26.10;16.10;;;;;;;1.37;94.54;100009.13;103744;1293;71922;-73
2022/12/09 09:58:11;;;;;;;27.50;16.30;;;;;;;1.40;94.31;100011.64;103780;1299;60491;-73
2022/12/09 10:01:02;;;;;;;26.80;16.50;;;;;;;1.42;93.96;100012.83;103729;1291;60484;-73
2022/12/09 10:03:42;;;;;;;26.40;16.80;;;;;;;1.45;93.75;100007.16;103320;1293;74786;-73
2022/12/09 10:06:33;;;;;;;28.90;17.20;;;;;;;1.50;94.06;100005.91;103567;1297;70009;-74
2022/12/09 10:09:23;;;;;;;28.10;17.30;;;;;;;1.60;94.46;100006.23;103925;1292;71317;-74
2022/12/09 10:12:10;;;;;;;27.30;17.20;;;;;;;1.71;94.56;100005.98;103611;1293;60586;-75
2022/12/09 10:14:53;;;;;;;25.60;17.20;;;;;;;1.78;94.35;100002.42;104413;1292;59361;-75
2022/12/09 10:17:50;;;;;;;29.60;17.50;;;;;;;1.85;94.29;100004.21;103735;1283;72897;-75
2022/12/09 10:20:25;;;;;;;27.40;16.00;;;;;;;1.91;93.74;100001.10;103250;1302;68720;-74
2022/12/09 10:22:58;;;;;;;29.90;16.00;;;;;;;1.93;93.44;99999.14;103128;1299;72612;-75
2022/12/09 10:25:28;;;;;;;29.20;16.60;;;;;;;1.96;93.26;99995.02;103930;1299;60950;-75
2022/12/09 10:28:20;;;;;;;26.80;16.10;;;;;;;2.02;93.36;99992.95;103305;1291;61864;-74
2022/12/09 10:30:52;;;;;;;27.60;15.90;;;;;;;2.05;93.07;99991.64;103881;1294;74037;-75
2022/12/09 10:33:35;;;;;;;25.10;16.00;;;;;;;2.04;92.75;99992.20;103321;1298;70938;-73
2022/12/09 10:36:03;;;;;;;25.10;15.50;;;;;;;2.08;92.75;99990.34;103491;1297;71092;-75
2022/12/09 10:38:34;;;;;;;26.60;15.90;;;;;;;2.09;92.54;99988.20;103741;1299;61760;-76
2022/12/09 10:44:25;;;;;;;24.50;14.60;;;;;;;2.16;92.22;99984.73;104340;1294;72657;-76
2022/12/09 10:47:02;;;;;;;26.00;15.70;;;;;;;2.20;92.25;99983.02;104142;1292;71735;-75
2022/12/09 10:49:31;;;;;;;25.10;15.20;;;;;;;2.22;92.30;99984.39;103228;1297;71254;-76
2022/12/09 10:51:59;;;;;;;24.30;15.30;;;;;;;2.20;91.85;99981.86;104144;1285;61727;-76
2022/12/09 10:54:35;;;;;;;25.30;15.30;;;;;;;2.21;91.96;99979.00;103525;1294;61303;-74
2022/12/09 10:57:11;;;;;;;25.30;15.70;;;;;;;2.26;92.06;99973.93;103524;1293;73640;-74
2022/12/09 10:59:40;;;;;;;24.00;14.90;;;;;;;2.26;91.71;99975.45;103155;1291;72163;-74
2022/12/09 11:02:07;;;;;;;23.70;15.00;;;;;;;2.26;91.93;99975.48;103226;1295;72996;-74
2022/12/09 11:04:38;;;;;;;24.50;15.80;;;;;;;2.25;91.64;99976.38;104284;1292;61573;-75
2022/12/09 11:07:05;;;;;;;27.60;15.80;;;;;;;2.28;92.09;99973.35;103796;1292;59341;-75
2022/12/09 11:09:34;;;;;;;26.40;16.30;;;;;;;2.30;91.81;99977.02;103003;1291;72236;-76
2022/12/09 11:12:04;;;;;;;24.30;15.50;;;;;;;2.32;92.08;99978.09;103711;1300;71519;-76
2022/12/09 11:14:35;;;;;;;25.00;15.30;;;;;;;2.33;92.05;99977.64;103495;1286;72751;-75
2022/12/09 11:17:18;;;;;;;25.50;15.10;;;;;;;2.32;91.99;99977.30;103481;1296;62025;-75
2022/12/09 11:19:50;;;;;;;25.20;14.80;;;;;;;2.26;91.37;99975.60;103577;1285;60481;-75
2022/12/09 11:22:22;;;;;;;23.10;14.50;;;;;;;2.21;91.62;99972.55;104094;1283;73780;-75
2022/12/09 11:24:55;;;;;;;21.40;14.50;;;;;;;2.19;91.72;99973.67;103432;1296;70518;-76